!!! Benutzen Sie für Ihre Flugvorbereitung die offiziellen Quellen !!!

Metar:

EDQM 261020Z 20008KT 170V240 CAVOK 11/M02 Q1034

QNH: 1034
Temperatur: 11
Dew Point : -2

 

METAR (decoded)